createdAt,value
2023-01-08T00:00:52.880Z,24.32
2023-01-08T00:03:59.755Z,19.32
2023-01-08T00:07:07.127Z,19.25
2023-01-08T00:10:13.279Z,19.80
2023-01-08T00:13:21.191Z,24.37
2023-01-08T00:16:29.387Z,19.92
2023-01-08T00:19:34.494Z,19.30
2023-01-08T00:22:40.728Z,19.98
2023-01-08T00:25:48.015Z,20.40
2023-01-08T00:28:53.531Z,28.50
2023-01-08T00:32:02.153Z,23.05
2023-01-08T00:35:08.418Z,24.55
2023-01-08T00:38:14.824Z,25.48
2023-01-08T00:41:21.543Z,22.05
2023-01-08T00:44:27.448Z,23.85
2023-01-08T00:47:33.923Z,21.48
2023-01-08T00:50:39.838Z,21.65
2023-01-08T00:53:48.132Z,23.62
2023-01-08T00:56:54.789Z,24.10
2023-01-08T01:00:00.637Z,27.00
2023-01-08T01:03:07.613Z,26.52
2023-01-08T01:06:17.080Z,27.17
2023-01-08T01:09:25.966Z,18.42
2023-01-08T01:12:31.675Z,20.02
2023-01-08T01:15:38.704Z,22.77
2023-01-08T01:18:37.981Z,23.90
2023-01-08T01:21:44.381Z,25.08
2023-01-08T01:24:50.203Z,22.58
2023-01-08T01:27:55.923Z,26.25
2023-01-08T01:31:10.251Z,23.87
2023-01-08T01:34:15.398Z,21.77
2023-01-08T01:37:21.321Z,20.77
2023-01-08T01:40:26.482Z,25.92
2023-01-08T01:43:53.431Z,22.82
2023-01-08T01:46:58.907Z,23.62
2023-01-08T01:50:22.052Z,20.68
2023-01-08T01:56:36.687Z,25.80
2023-01-08T01:59:42.046Z,24.72
2023-01-08T02:02:48.428Z,27.65
2023-01-08T02:06:16.565Z,25.48
2023-01-08T02:09:51.685Z,24.95
2023-01-08T02:13:04.835Z,24.35
2023-01-08T02:16:14.713Z,25.17
2023-01-08T02:19:54.759Z,22.50
2023-01-08T02:23:46.141Z,31.27
2023-01-08T02:26:51.653Z,23.22
2023-01-08T02:29:57.768Z,25.95
2023-01-08T02:33:03.878Z,25.30
2023-01-08T02:36:32.547Z,23.45
2023-01-08T02:40:21.964Z,30.80
2023-01-08T02:43:34.826Z,30.77
2023-01-08T02:46:42.604Z,28.12
2023-01-08T02:49:49.481Z,25.55
2023-01-08T02:53:17.026Z,29.40
2023-01-08T02:56:25.814Z,29.50
2023-01-08T02:59:31.697Z,29.92
2023-01-08T03:02:41.205Z,26.57
2023-01-08T03:05:46.807Z,30.15
2023-01-08T03:08:57.248Z,36.03
2023-01-08T03:12:12.270Z,34.18
2023-01-08T03:15:22.583Z,34.60
2023-01-08T03:18:29.690Z,35.23
2023-01-08T03:21:36.022Z,27.37
2023-01-08T03:24:46.015Z,33.42
2023-01-08T03:27:54.806Z,30.05
2023-01-08T03:31:00.648Z,32.83
2023-01-08T03:34:06.648Z,30.02
2023-01-08T03:37:15.004Z,31.90
2023-01-08T03:40:34.203Z,26.25
2023-01-08T03:43:39.192Z,29.20
2023-01-08T03:46:46.973Z,34.92
2023-01-08T03:49:53.708Z,31.27
2023-01-08T03:53:01.915Z,23.10
2023-01-08T03:56:09.616Z,25.05
2023-01-08T03:59:14.708Z,29.90
2023-01-08T04:02:21.108Z,25.35
2023-01-08T04:05:27.717Z,30.65
2023-01-08T04:08:33.657Z,22.35
2023-01-08T04:11:38.997Z,24.52
2023-01-08T04:14:44.256Z,26.80
2023-01-08T04:17:50.836Z,30.02
2023-01-08T04:21:01.515Z,23.75
2023-01-08T04:24:08.705Z,26.68
2023-01-08T04:27:16.414Z,25.25
2023-01-08T04:30:22.365Z,25.20
2023-01-08T04:33:27.947Z,26.33
2023-01-08T04:36:33.333Z,25.72
2023-01-08T04:39:41.234Z,31.52
2023-01-08T04:42:46.318Z,26.65
2023-01-08T04:45:52.400Z,27.50
2023-01-08T04:48:58.932Z,25.37
2023-01-08T04:52:05.931Z,25.90
2023-01-08T04:55:12.419Z,31.52
2023-01-08T04:58:18.898Z,27.98
2023-01-08T05:01:35.379Z,25.72
2023-01-08T05:04:35.153Z,24.82
2023-01-08T05:07:22.575Z,26.65
2023-01-08T05:10:17.711Z,28.00
2023-01-08T05:13:09.223Z,27.93
2023-01-08T05:16:01.940Z,27.73
2023-01-08T05:19:07.110Z,25.20
2023-01-08T05:22:16.537Z,31.25
2023-01-08T05:25:24.462Z,25.68
2023-01-08T05:28:31.006Z,22.87
2023-01-08T05:31:38.384Z,32.63
2023-01-08T05:34:44.755Z,26.48
2023-01-08T05:37:51.295Z,28.73
2023-01-08T05:40:59.050Z,24.37
2023-01-08T05:44:06.165Z,32.45
2023-01-08T05:47:14.442Z,26.50
2023-01-08T05:50:23.151Z,30.12
2023-01-08T05:53:29.478Z,28.50
2023-01-08T05:56:35.878Z,40.00
2023-01-08T05:59:43.087Z,23.83
2023-01-08T06:02:49.485Z,29.02
2023-01-08T06:05:56.112Z,25.72
2023-01-08T06:09:03.140Z,26.23
2023-01-08T06:12:09.146Z,33.30
2023-01-08T06:15:14.736Z,28.07
2023-01-08T06:18:20.528Z,28.05
2023-01-08T06:21:26.700Z,33.05
2023-01-08T06:24:32.207Z,26.05
2023-01-08T06:27:40.698Z,24.47
2023-01-08T06:30:48.496Z,25.25
2023-01-08T06:33:55.421Z,30.05
2023-01-08T06:37:01.693Z,26.15
2023-01-08T06:40:08.640Z,24.63
2023-01-08T06:43:18.276Z,29.63
2023-01-08T06:46:23.648Z,27.52
2023-01-08T06:49:31.665Z,28.73
2023-01-08T06:52:39.567Z,27.05
2023-01-08T06:55:45.464Z,32.38
2023-01-08T06:58:51.104Z,21.33
2023-01-08T07:01:59.300Z,32.42
2023-01-08T07:05:04.113Z,30.57
2023-01-08T07:08:11.107Z,26.45
2023-01-08T07:11:20.475Z,24.50
2023-01-08T07:14:26.835Z,32.73
2023-01-08T07:17:33.907Z,26.40
2023-01-08T07:20:39.676Z,24.87
2023-01-08T07:23:46.424Z,29.98
2023-01-08T07:26:52.027Z,26.97
2023-01-08T07:29:57.806Z,25.17
2023-01-08T07:33:03.204Z,28.02
2023-01-08T07:36:09.187Z,24.60
2023-01-08T07:39:15.860Z,26.37
2023-01-08T07:42:23.052Z,23.77
2023-01-08T07:45:32.116Z,26.42
2023-01-08T07:48:38.568Z,22.95
2023-01-08T07:51:45.953Z,25.25
2023-01-08T07:54:52.522Z,27.07
2023-01-08T07:57:58.837Z,39.73
2023-01-08T08:01:05.487Z,37.63
2023-01-08T08:04:10.633Z,39.05
2023-01-08T08:07:16.743Z,41.70
2023-01-08T08:10:21.310Z,41.48
2023-01-08T08:13:28.174Z,51.53
2023-01-08T08:16:35.207Z,65.57
2023-01-08T08:19:40.892Z,34.38
2023-01-08T08:22:46.017Z,25.00
2023-01-08T08:25:51.019Z,21.45
2023-01-08T08:28:57.015Z,25.25
2023-01-08T08:32:02.486Z,18.25
2023-01-08T08:35:09.300Z,26.40
2023-01-08T08:38:17.436Z,22.77
2023-01-08T08:41:23.459Z,28.27
2023-01-08T08:44:30.806Z,23.45
2023-01-08T08:47:37.329Z,32.70
2023-01-08T08:50:47.527Z,34.80
2023-01-08T08:53:54.712Z,22.75
2023-01-08T08:57:02.303Z,28.60
2023-01-08T09:00:08.088Z,25.92
2023-01-08T09:03:15.584Z,24.27
2023-01-08T09:06:27.945Z,26.33
2023-01-08T09:09:34.458Z,26.55
2023-01-08T09:12:40.530Z,21.05
2023-01-08T09:15:46.807Z,18.85
2023-01-08T09:18:55.433Z,19.73
2023-01-08T09:22:00.407Z,19.65
2023-01-08T09:25:06.661Z,18.35
2023-01-08T09:28:19.831Z,23.20
2023-01-08T09:31:26.504Z,20.17
2023-01-08T09:34:33.164Z,25.90
2023-01-08T09:37:39.336Z,22.35
2023-01-08T09:40:56.004Z,30.37
2023-01-08T09:44:06.540Z,26.15
2023-01-08T09:47:13.039Z,27.55
2023-01-08T09:50:20.714Z,20.82
2023-01-08T09:53:29.593Z,25.12
2023-01-08T09:56:34.819Z,23.62
2023-01-08T09:59:42.603Z,26.40
2023-01-08T10:02:51.059Z,21.57
2023-01-08T10:05:56.080Z,25.12
2023-01-08T10:09:01.916Z,23.35
2023-01-08T10:12:06.786Z,25.62
2023-01-08T10:15:21.694Z,21.73
2023-01-08T10:18:28.555Z,24.32
2023-01-08T10:21:36.285Z,20.00
2023-01-08T10:24:50.098Z,23.12
2023-01-08T10:28:14.714Z,19.32
2023-01-08T10:31:25.441Z,24.20
2023-01-08T10:35:11.881Z,26.55
2023-01-08T10:38:19.277Z,20.97
2023-01-08T10:41:26.937Z,26.90
2023-01-08T10:44:32.964Z,26.57
2023-01-08T10:47:39.199Z,19.73
2023-01-08T10:50:47.020Z,18.95
2023-01-08T10:53:52.925Z,16.77
2023-01-08T10:57:02.299Z,15.60
2023-01-08T11:00:06.767Z,24.57
2023-01-08T11:03:16.085Z,19.55
2023-01-08T11:06:30.571Z,16.82
2023-01-08T11:09:41.300Z,25.85
2023-01-08T11:12:55.205Z,21.30
2023-01-08T11:16:01.668Z,20.37
2023-01-08T11:19:09.027Z,36.25
2023-01-08T11:22:40.241Z,21.52
2023-01-08T11:25:46.831Z,21.17
2023-01-08T11:29:32.135Z,27.22
2023-01-08T11:33:22.069Z,20.70
2023-01-08T11:36:36.996Z,30.00
2023-01-08T11:39:43.917Z,31.05
2023-01-08T11:43:09.103Z,21.30
2023-01-08T11:46:33.574Z,22.48
2023-01-08T11:49:51.206Z,21.73
2023-01-08T11:53:42.421Z,21.50
2023-01-08T12:00:15.409Z,19.27
2023-01-08T12:03:41.724Z,15.40
2023-01-08T12:07:13.583Z,25.85
2023-01-08T12:10:44.888Z,22.90
2023-01-08T12:14:07.139Z,16.20
2023-01-08T12:17:45.825Z,18.12
2023-01-08T12:21:06.917Z,19.30
2023-01-08T12:24:57.863Z,28.07
2023-01-08T12:28:32.034Z,15.05
2023-01-08T12:32:14.641Z,23.15
2023-01-08T12:35:43.735Z,19.35
2023-01-08T12:39:00.802Z,14.50
2023-01-08T12:42:07.047Z,21.35
2023-01-08T12:45:13.966Z,18.57
2023-01-08T12:48:35.746Z,25.95
2023-01-08T12:51:49.520Z,15.83
2023-01-08T12:55:33.333Z,17.62
2023-01-08T12:59:02.943Z,19.92
2023-01-08T13:02:50.642Z,16.95
2023-01-08T13:05:57.112Z,22.73
2023-01-08T13:09:08.216Z,25.72
2023-01-08T13:12:14.797Z,23.57
2023-01-08T13:15:21.692Z,28.23
2023-01-08T13:18:37.217Z,24.47
2023-01-08T13:21:55.041Z,21.93
2023-01-08T13:25:03.095Z,24.10
2023-01-08T13:28:10.544Z,19.27
2023-01-08T13:31:37.040Z,22.80
2023-01-08T13:34:53.811Z,22.07
2023-01-08T13:38:06.856Z,24.72
2023-01-08T13:41:12.489Z,27.42
2023-01-08T13:44:41.768Z,19.77
2023-01-08T13:47:49.478Z,20.40
2023-01-08T13:50:54.730Z,20.40
2023-01-08T13:54:03.969Z,22.45
2023-01-08T13:57:10.555Z,17.55
2023-01-08T14:00:15.669Z,20.50
2023-01-08T14:03:20.381Z,17.75
2023-01-08T14:06:35.015Z,26.40
2023-01-08T14:09:40.897Z,26.93
2023-01-08T14:12:45.601Z,18.17
2023-01-08T14:15:51.608Z,16.85
2023-01-08T14:19:00.177Z,16.20
2023-01-08T14:22:14.331Z,16.60
2023-01-08T14:25:21.719Z,23.60
2023-01-08T14:28:33.609Z,39.73
2023-01-08T14:34:48.002Z,52.13
2023-01-08T14:37:55.050Z,33.90
2023-01-08T14:41:25.281Z,31.07
2023-01-08T14:44:38.022Z,30.82
2023-01-08T14:47:40.213Z,25.10
2023-01-08T14:50:56.395Z,32.33
2023-01-08T14:54:06.109Z,40.78
2023-01-08T14:57:12.645Z,64.72
2023-01-08T15:00:17.449Z,44.03
2023-01-08T15:03:47.107Z,53.98
2023-01-08T15:06:53.770Z,42.80
2023-01-08T15:10:01.828Z,36.68
2023-01-08T15:13:13.282Z,33.28
2023-01-08T15:16:27.358Z,49.73
2023-01-08T15:19:37.192Z,55.23
2023-01-08T15:22:44.800Z,66.12
2023-01-08T15:25:50.340Z,58.33
2023-01-08T15:29:06.857Z,49.15
2023-01-08T15:32:12.498Z,27.50
2023-01-08T15:35:33.106Z,37.75
2023-01-08T15:38:41.389Z,32.63
2023-01-08T15:42:09.077Z,31.50
2023-01-08T15:45:14.796Z,35.28
2023-01-08T15:48:21.366Z,35.63
2023-01-08T15:51:28.339Z,28.17
2023-01-08T15:54:35.011Z,29.00
2023-01-08T15:57:44.781Z,36.03
2023-01-08T16:00:49.866Z,33.53
2023-01-08T16:03:56.888Z,34.40
2023-01-08T16:07:06.591Z,31.35
2023-01-08T16:10:13.273Z,27.27
2023-01-08T16:13:19.002Z,31.80
2023-01-08T16:16:27.319Z,40.30
2023-01-08T16:19:36.445Z,32.00
2023-01-08T16:22:42.658Z,31.45
2023-01-08T16:25:49.312Z,22.60
2023-01-08T16:28:54.391Z,32.20
2023-01-08T16:32:02.823Z,22.48
2023-01-08T16:35:10.019Z,19.98
2023-01-08T16:38:17.380Z,21.42
2023-01-08T16:41:24.482Z,27.77
2023-01-08T16:44:35.338Z,27.40
2023-01-08T16:47:41.498Z,42.70
2023-01-08T16:50:48.890Z,27.87
2023-01-08T16:53:56.146Z,23.50
2023-01-08T16:57:01.907Z,18.62
2023-01-08T17:00:07.199Z,22.05
2023-01-08T17:03:13.392Z,22.00
2023-01-08T17:06:20.622Z,23.00
2023-01-08T17:09:26.979Z,20.17
2023-01-08T17:12:32.977Z,27.75
2023-01-08T17:15:40.615Z,24.60
2023-01-08T17:18:46.236Z,22.60
2023-01-08T17:21:54.994Z,30.08
2023-01-08T17:24:55.231Z,26.17
2023-01-08T17:27:45.240Z,26.62
2023-01-08T17:30:38.132Z,28.80
2023-01-08T17:33:23.924Z,27.37
2023-01-08T17:36:22.537Z,27.85
2023-01-08T17:39:10.227Z,26.15
2023-01-08T17:42:21.198Z,32.28
2023-01-08T17:45:27.454Z,26.15
2023-01-08T17:48:34.277Z,26.62
2023-01-08T17:51:40.713Z,27.73
2023-01-08T17:54:47.047Z,28.23
2023-01-08T17:57:54.074Z,23.20
2023-01-08T18:01:02.132Z,34.33
2023-01-08T18:04:07.488Z,32.40
2023-01-08T18:07:12.513Z,25.75
2023-01-08T18:10:20.229Z,28.20
2023-01-08T18:13:28.011Z,29.12
2023-01-08T18:16:33.811Z,22.48
2023-01-08T18:19:39.999Z,28.77
2023-01-08T18:22:47.046Z,27.77
2023-01-08T18:25:57.421Z,26.93
2023-01-08T18:29:04.901Z,28.62
2023-01-08T18:32:12.305Z,24.82
2023-01-08T18:35:21.413Z,29.92
2023-01-08T18:38:26.853Z,29.25
2023-01-08T18:41:58.255Z,28.60
2023-01-08T18:45:05.714Z,31.10
2023-01-08T18:48:11.675Z,34.60
2023-01-08T18:51:18.750Z,32.45
2023-01-08T18:54:26.602Z,29.98
2023-01-08T18:57:32.511Z,29.70
2023-01-08T19:00:40.592Z,33.55
2023-01-08T19:03:46.958Z,41.48
2023-01-08T19:06:52.181Z,38.33
2023-01-08T19:09:58.106Z,31.10
2023-01-08T19:13:03.574Z,35.13
2023-01-08T19:16:08.373Z,29.45
2023-01-08T19:19:13.930Z,28.00
2023-01-08T19:22:21.712Z,29.05
2023-01-08T19:25:28.998Z,42.15
2023-01-08T19:28:36.182Z,38.85
2023-01-08T19:31:42.168Z,33.13
2023-01-08T19:34:49.062Z,31.70
2023-01-08T19:37:56.023Z,34.75
2023-01-08T19:41:02.881Z,48.83
2023-01-08T19:44:12.396Z,33.15
2023-01-08T19:47:18.895Z,35.20
2023-01-08T19:50:26.347Z,35.55
2023-01-08T19:53:32.285Z,32.60
2023-01-08T19:56:38.833Z,32.85
2023-01-08T19:59:44.964Z,25.02
2023-01-08T20:02:49.990Z,30.48
2023-01-08T20:05:56.782Z,26.12
2023-01-08T20:09:09.116Z,31.95
2023-01-08T20:12:15.277Z,29.07
2023-01-08T20:15:24.309Z,29.75
2023-01-08T20:18:30.769Z,34.05
2023-01-08T20:21:36.112Z,28.45
2023-01-08T20:24:43.704Z,29.40
2023-01-08T20:27:48.869Z,25.97
2023-01-08T20:30:56.181Z,29.30
2023-01-08T20:34:02.283Z,27.37
2023-01-08T20:37:08.276Z,30.62
2023-01-08T20:40:13.995Z,27.98
2023-01-08T20:43:21.062Z,27.62
2023-01-08T20:46:26.724Z,31.55
2023-01-08T20:49:33.937Z,28.75
2023-01-08T20:52:43.794Z,31.85
2023-01-08T20:55:50.551Z,29.82
2023-01-08T20:58:59.413Z,29.20
2023-01-08T21:02:08.379Z,25.00
2023-01-08T21:05:15.245Z,34.20
2023-01-08T21:08:21.308Z,31.05
2023-01-08T21:11:29.876Z,31.93
2023-01-08T21:14:36.000Z,28.15
2023-01-08T21:17:41.309Z,30.05
2023-01-08T21:20:46.871Z,29.72
2023-01-08T21:23:52.151Z,32.50
2023-01-08T21:27:00.308Z,28.52
2023-01-08T21:30:08.797Z,36.05
2023-01-08T21:33:16.149Z,29.85
2023-01-08T21:36:25.970Z,29.65
2023-01-08T21:39:34.951Z,30.55
2023-01-08T21:43:00.236Z,31.17
2023-01-08T21:46:13.513Z,31.77
2023-01-08T21:49:18.842Z,30.48
2023-01-08T21:52:42.483Z,32.13
2023-01-08T21:55:49.825Z,29.10
2023-01-08T21:58:55.836Z,34.08
2023-01-08T22:02:03.311Z,32.23
2023-01-08T22:05:12.974Z,34.27
2023-01-08T22:08:21.707Z,32.93
2023-01-08T22:11:31.074Z,35.58
2023-01-08T22:14:37.325Z,33.23
2023-01-08T22:17:45.058Z,32.85
2023-01-08T22:20:51.222Z,31.05
2023-01-08T22:23:59.142Z,34.65
2023-01-08T22:27:05.928Z,35.60
2023-01-08T22:30:10.872Z,34.75
2023-01-08T22:33:16.850Z,31.87
2023-01-08T22:36:25.595Z,32.35
2023-01-08T22:39:31.078Z,30.92
2023-01-08T22:42:38.936Z,25.48
2023-01-08T22:45:44.147Z,32.95
2023-01-08T22:48:51.182Z,35.13
2023-01-08T22:51:57.118Z,28.32
2023-01-08T22:55:05.354Z,31.87
2023-01-08T22:58:11.609Z,31.05
2023-01-08T23:01:18.517Z,33.63
2023-01-08T23:04:25.043Z,28.83
2023-01-08T23:07:31.144Z,33.30
2023-01-08T23:10:38.214Z,32.05
2023-01-08T23:13:46.184Z,35.00
2023-01-08T23:16:51.819Z,34.85
2023-01-08T23:19:57.845Z,35.03
2023-01-08T23:23:04.946Z,29.05
2023-01-08T23:26:10.905Z,32.90
2023-01-08T23:29:17.826Z,28.65
2023-01-08T23:32:23.824Z,33.50
2023-01-08T23:35:33.080Z,34.20
2023-01-08T23:38:38.895Z,37.88
2023-01-08T23:41:45.667Z,34.13
2023-01-08T23:44:51.784Z,33.75
2023-01-08T23:47:58.757Z,30.00
2023-01-08T23:51:04.034Z,30.62
2023-01-08T23:54:10.410Z,33.67
2023-01-08T23:57:17.266Z,35.38
